sensor_id;sensor_type;location;lat;lon;timestamp;P1;durP1;ratioP1;P2;durP2;ratioP2
2966;SDS011;1493;51.496;7.210;2023-05-10T00:01:48;7.90;;;5.60;;
2966;SDS011;1493;51.496;7.210;2023-05-10T00:04:15;6.30;;;4.70;;
2966;SDS011;1493;51.496;7.210;2023-05-10T00:06:42;6.00;;;5.40;;
2966;SDS011;1493;51.496;7.210;2023-05-10T00:09:09;5.70;;;5.10;;
2966;SDS011;1493;51.496;7.210;2023-05-10T00:11:35;8.07;;;6.17;;
2966;SDS011;1493;51.496;7.210;2023-05-10T00:14:02;7.40;;;5.30;;
2966;SDS011;1493;51.496;7.210;2023-05-10T00:16:30;7.50;;;5.10;;
2966;SDS011;1493;51.496;7.210;2023-05-10T00:18:57;8.83;;;6.63;;
2966;SDS011;1493;51.496;7.210;2023-05-10T00:21:24;8.80;;;7.10;;
2966;SDS011;1493;51.496;7.210;2023-05-10T00:23:53;8.90;;;7.10;;
2966;SDS011;1493;51.496;7.210;2023-05-10T00:26:20;7.70;;;6.43;;
2966;SDS011;1493;51.496;7.210;2023-05-10T00:28:46;9.70;;;7.90;;
2966;SDS011;1493;51.496;7.210;2023-05-10T00:31:13;7.60;;;6.07;;
2966;SDS011;1493;51.496;7.210;2023-05-10T00:33:41;7.10;;;5.30;;
2966;SDS011;1493;51.496;7.210;2023-05-10T00:36:08;8.50;;;7.40;;
2966;SDS011;1493;51.496;7.210;2023-05-10T00:38:35;6.83;;;5.33;;
2966;SDS011;1493;51.496;7.210;2023-05-10T00:41:03;6.60;;;5.80;;
2966;SDS011;1493;51.496;7.210;2023-05-10T00:43:30;9.47;;;7.87;;
2966;SDS011;1493;51.496;7.210;2023-05-10T00:45:57;9.73;;;7.77;;
2966;SDS011;1493;51.496;7.210;2023-05-10T00:48:24;11.80;;;9.57;;
2966;SDS011;1493;51.496;7.210;2023-05-10T00:50:52;11.80;;;10.30;;
2966;SDS011;1493;51.496;7.210;2023-05-10T00:53:19;11.50;;;9.63;;
2966;SDS011;1493;51.496;7.210;2023-05-10T00:55:46;14.00;;;9.30;;
2966;SDS011;1493;51.496;7.210;2023-05-10T00:58:12;12.20;;;8.97;;
2966;SDS011;1493;51.496;7.210;2023-05-10T01:00:41;14.43;;;11.33;;
2966;SDS011;1493;51.496;7.210;2023-05-10T01:03:09;14.60;;;12.00;;
2966;SDS011;1493;51.496;7.210;2023-05-10T01:05:36;11.83;;;9.90;;
2966;SDS011;1493;51.496;7.210;2023-05-10T01:08:04;11.93;;;9.87;;
2966;SDS011;1493;51.496;7.210;2023-05-10T01:10:33;14.37;;;10.10;;
2966;SDS011;1493;51.496;7.210;2023-05-10T01:13:00;11.40;;;9.23;;
2966;SDS011;1493;51.496;7.210;2023-05-10T01:15:28;12.10;;;9.33;;
2966;SDS011;1493;51.496;7.210;2023-05-10T01:17:55;14.90;;;9.10;;
2966;SDS011;1493;51.496;7.210;2023-05-10T01:20:22;9.20;;;8.00;;
2966;SDS011;1493;51.496;7.210;2023-05-10T01:32:06;13.33;;;10.13;;
2966;SDS011;1493;51.496;7.210;2023-05-10T01:34:44;12.00;;;9.40;;
2966;SDS011;1493;51.496;7.210;2023-05-10T01:37:19;16.00;;;10.40;;
2966;SDS011;1493;51.496;7.210;2023-05-10T01:39:49;15.20;;;10.57;;
2966;SDS011;1493;51.496;7.210;2023-05-10T01:42:23;13.10;;;10.23;;
2966;SDS011;1493;51.496;7.210;2023-05-10T01:44:54;11.60;;;9.73;;
2966;SDS011;1493;51.496;7.210;2023-05-10T01:47:26;11.60;;;9.97;;
2966;SDS011;1493;51.496;7.210;2023-05-10T01:49:57;12.33;;;9.67;;
2966;SDS011;1493;51.496;7.210;2023-05-10T01:52:32;12.47;;;10.33;;
2966;SDS011;1493;51.496;7.210;2023-05-10T01:55:04;12.67;;;9.73;;
2966;SDS011;1493;51.496;7.210;2023-05-10T01:57:34;12.93;;;9.37;;
2966;SDS011;1493;51.496;7.210;2023-05-10T02:00:04;10.40;;;9.20;;
2966;SDS011;1493;51.496;7.210;2023-05-10T02:02:37;13.00;;;9.93;;
2966;SDS011;1493;51.496;7.210;2023-05-10T02:05:07;11.80;;;10.07;;
2966;SDS011;1493;51.496;7.210;2023-05-10T02:07:35;10.50;;;9.40;;
2966;SDS011;1493;51.496;7.210;2023-05-10T02:10:03;12.40;;;9.93;;
2966;SDS011;1493;51.496;7.210;2023-05-10T02:12:32;10.27;;;9.13;;
2966;SDS011;1493;51.496;7.210;2023-05-10T02:15:02;10.77;;;9.30;;
2966;SDS011;1493;51.496;7.210;2023-05-10T02:17:33;11.10;;;8.67;;
2966;SDS011;1493;51.496;7.210;2023-05-10T02:20:03;11.57;;;8.60;;
2966;SDS011;1493;51.496;7.210;2023-05-10T02:22:32;11.10;;;9.90;;
2966;SDS011;1493;51.496;7.210;2023-05-10T02:25:01;11.83;;;9.00;;
2966;SDS011;1493;51.496;7.210;2023-05-10T02:27:30;13.23;;;9.30;;
2966;SDS011;1493;51.496;7.210;2023-05-10T02:29:57;11.60;;;8.60;;
2966;SDS011;1493;51.496;7.210;2023-05-10T02:32:25;10.50;;;9.40;;
2966;SDS011;1493;51.496;7.210;2023-05-10T02:34:55;13.57;;;9.20;;
2966;SDS011;1493;51.496;7.210;2023-05-10T02:37:24;13.80;;;9.30;;
2966;SDS011;1493;51.496;7.210;2023-05-10T02:39:53;11.13;;;9.43;;
2966;SDS011;1493;51.496;7.210;2023-05-10T02:42:23;10.37;;;8.70;;
2966;SDS011;1493;51.496;7.210;2023-05-10T02:44:52;12.47;;;9.47;;
2966;SDS011;1493;51.496;7.210;2023-05-10T02:47:22;13.47;;;9.73;;
2966;SDS011;1493;51.496;7.210;2023-05-10T02:49:49;12.57;;;9.20;;
2966;SDS011;1493;51.496;7.210;2023-05-10T02:52:25;12.43;;;10.40;;
2966;SDS011;1493;51.496;7.210;2023-05-10T02:54:56;12.53;;;9.90;;
2966;SDS011;1493;51.496;7.210;2023-05-10T02:57:28;15.07;;;9.03;;
2966;SDS011;1493;51.496;7.210;2023-05-10T02:59:57;12.53;;;10.33;;
2966;SDS011;1493;51.496;7.210;2023-05-10T03:02:25;12.27;;;9.90;;
2966;SDS011;1493;51.496;7.210;2023-05-10T03:04:52;14.60;;;10.30;;
2966;SDS011;1493;51.496;7.210;2023-05-10T03:07:19;13.57;;;11.37;;
2966;SDS011;1493;51.496;7.210;2023-05-10T03:09:47;18.50;;;12.33;;
2966;SDS011;1493;51.496;7.210;2023-05-10T03:12:15;16.07;;;10.23;;
2966;SDS011;1493;51.496;7.210;2023-05-10T03:14:53;21.17;;;11.70;;
2966;SDS011;1493;51.496;7.210;2023-05-10T03:17:29;12.50;;;10.70;;
2966;SDS011;1493;51.496;7.210;2023-05-10T03:20:02;14.13;;;10.33;;
2966;SDS011;1493;51.496;7.210;2023-05-10T03:22:34;13.33;;;10.93;;
2966;SDS011;1493;51.496;7.210;2023-05-10T03:25:05;12.10;;;9.63;;
2966;SDS011;1493;51.496;7.210;2023-05-10T03:27:34;12.23;;;10.00;;
2966;SDS011;1493;51.496;7.210;2023-05-10T03:30:02;14.40;;;10.87;;
2966;SDS011;1493;51.496;7.210;2023-05-10T03:32:31;12.47;;;9.30;;
2966;SDS011;1493;51.496;7.210;2023-05-10T03:34:59;15.80;;;10.73;;
2966;SDS011;1493;51.496;7.210;2023-05-10T03:37:27;14.23;;;10.10;;
2966;SDS011;1493;51.496;7.210;2023-05-10T03:39:54;14.33;;;10.23;;
2966;SDS011;1493;51.496;7.210;2023-05-10T03:42:22;16.43;;;10.90;;
2966;SDS011;1493;51.496;7.210;2023-05-10T03:44:48;11.63;;;9.70;;
2966;SDS011;1493;51.496;7.210;2023-05-10T03:47:15;14.20;;;9.87;;
2966;SDS011;1493;51.496;7.210;2023-05-10T03:49:42;11.60;;;8.93;;
2966;SDS011;1493;51.496;7.210;2023-05-10T03:52:09;14.73;;;9.67;;
2966;SDS011;1493;51.496;7.210;2023-05-10T03:54:36;15.07;;;9.73;;
2966;SDS011;1493;51.496;7.210;2023-05-10T03:57:02;11.83;;;9.10;;
2966;SDS011;1493;51.496;7.210;2023-05-10T03:59:31;11.00;;;8.00;;
2966;SDS011;1493;51.496;7.210;2023-05-10T04:01:57;12.10;;;8.30;;
2966;SDS011;1493;51.496;7.210;2023-05-10T04:04:24;13.53;;;9.30;;
2966;SDS011;1493;51.496;7.210;2023-05-10T04:06:51;16.20;;;9.20;;
2966;SDS011;1493;51.496;7.210;2023-05-10T04:09:18;12.63;;;9.27;;
2966;SDS011;1493;51.496;7.210;2023-05-10T04:11:45;15.03;;;11.17;;
2966;SDS011;1493;51.496;7.210;2023-05-10T04:14:11;18.17;;;11.10;;
2966;SDS011;1493;51.496;7.210;2023-05-10T04:16:40;16.47;;;11.10;;
2966;SDS011;1493;51.496;7.210;2023-05-10T04:19:06;18.37;;;11.40;;
2966;SDS011;1493;51.496;7.210;2023-05-10T04:21:33;18.77;;;14.23;;
2966;SDS011;1493;51.496;7.210;2023-05-10T04:24:00;15.37;;;12.83;;
2966;SDS011;1493;51.496;7.210;2023-05-10T04:26:27;23.30;;;13.80;;
2966;SDS011;1493;51.496;7.210;2023-05-10T04:28:53;19.90;;;13.30;;
2966;SDS011;1493;51.496;7.210;2023-05-10T04:31:20;23.80;;;14.90;;
2966;SDS011;1493;51.496;7.210;2023-05-10T04:33:48;20.70;;;15.00;;
2966;SDS011;1493;51.496;7.210;2023-05-10T04:36:15;25.03;;;16.10;;
2966;SDS011;1493;51.496;7.210;2023-05-10T04:38:42;24.37;;;16.83;;
2966;SDS011;1493;51.496;7.210;2023-05-10T04:41:09;23.30;;;16.73;;
2966;SDS011;1493;51.496;7.210;2023-05-10T04:43:37;33.50;;;20.40;;
2966;SDS011;1493;51.496;7.210;2023-05-10T04:46:04;36.97;;;20.70;;
2966;SDS011;1493;51.496;7.210;2023-05-10T04:48:32;30.37;;;19.80;;
2966;SDS011;1493;51.496;7.210;2023-05-10T04:51:00;25.97;;;19.30;;
2966;SDS011;1493;51.496;7.210;2023-05-10T04:53:28;30.70;;;19.97;;
2966;SDS011;1493;51.496;7.210;2023-05-10T04:55:55;34.47;;;20.73;;
2966;SDS011;1493;51.496;7.210;2023-05-10T04:58:22;32.77;;;20.40;;
2966;SDS011;1493;51.496;7.210;2023-05-10T05:00:49;32.43;;;20.83;;
2966;SDS011;1493;51.496;7.210;2023-05-10T05:03:16;27.30;;;17.50;;
2966;SDS011;1493;51.496;7.210;2023-05-10T05:05:43;30.27;;;19.90;;
2966;SDS011;1493;51.496;7.210;2023-05-10T05:08:11;30.63;;;19.07;;
2966;SDS011;1493;51.496;7.210;2023-05-10T05:10:38;30.13;;;19.57;;
2966;SDS011;1493;51.496;7.210;2023-05-10T05:13:04;33.23;;;22.60;;
2966;SDS011;1493;51.496;7.210;2023-05-10T05:15:31;31.20;;;20.83;;
2966;SDS011;1493;51.496;7.210;2023-05-10T05:17:59;30.87;;;20.80;;
2966;SDS011;1493;51.496;7.210;2023-05-10T05:20:25;39.03;;;23.57;;
2966;SDS011;1493;51.496;7.210;2023-05-10T05:22:52;30.70;;;20.70;;
2966;SDS011;1493;51.496;7.210;2023-05-10T05:25:20;31.63;;;22.63;;
2966;SDS011;1493;51.496;7.210;2023-05-10T05:27:47;31.70;;;21.73;;
2966;SDS011;1493;51.496;7.210;2023-05-10T05:30:14;33.20;;;22.23;;
2966;SDS011;1493;51.496;7.210;2023-05-10T05:32:41;27.97;;;22.03;;
2966;SDS011;1493;51.496;7.210;2023-05-10T05:35:08;29.33;;;21.13;;
2966;SDS011;1493;51.496;7.210;2023-05-10T05:37:35;36.03;;;22.60;;
2966;SDS011;1493;51.496;7.210;2023-05-10T05:40:02;31.40;;;23.53;;
2966;SDS011;1493;51.496;7.210;2023-05-10T05:42:30;35.80;;;24.10;;
2966;SDS011;1493;51.496;7.210;2023-05-10T05:44:57;32.07;;;23.33;;
2966;SDS011;1493;51.496;7.210;2023-05-10T05:47:24;36.97;;;24.47;;
2966;SDS011;1493;51.496;7.210;2023-05-10T05:49:51;35.57;;;23.70;;
2966;SDS011;1493;51.496;7.210;2023-05-10T05:52:18;34.97;;;23.20;;
2966;SDS011;1493;51.496;7.210;2023-05-10T05:54:46;34.03;;;22.53;;
2966;SDS011;1493;51.496;7.210;2023-05-10T05:57:13;40.13;;;26.27;;
2966;SDS011;1493;51.496;7.210;2023-05-10T05:59:41;31.13;;;23.50;;
2966;SDS011;1493;51.496;7.210;2023-05-10T06:02:08;33.10;;;23.03;;
2966;SDS011;1493;51.496;7.210;2023-05-10T06:04:35;30.30;;;23.10;;
2966;SDS011;1493;51.496;7.210;2023-05-10T06:07:02;30.43;;;23.20;;
2966;SDS011;1493;51.496;7.210;2023-05-10T06:09:29;33.23;;;22.90;;
2966;SDS011;1493;51.496;7.210;2023-05-10T06:11:56;31.07;;;22.13;;
2966;SDS011;1493;51.496;7.210;2023-05-10T06:14:23;29.77;;;22.83;;
2966;SDS011;1493;51.496;7.210;2023-05-10T06:16:51;31.93;;;24.63;;
2966;SDS011;1493;51.496;7.210;2023-05-10T06:19:18;35.93;;;25.57;;
2966;SDS011;1493;51.496;7.210;2023-05-10T06:21:44;32.33;;;24.77;;
2966;SDS011;1493;51.496;7.210;2023-05-10T06:24:11;33.90;;;23.90;;
2966;SDS011;1493;51.496;7.210;2023-05-10T06:26:38;36.80;;;25.00;;
2966;SDS011;1493;51.496;7.210;2023-05-10T06:29:05;31.23;;;23.07;;
2966;SDS011;1493;51.496;7.210;2023-05-10T06:31:32;27.90;;;21.27;;
2966;SDS011;1493;51.496;7.210;2023-05-10T06:34:00;31.70;;;22.70;;
2966;SDS011;1493;51.496;7.210;2023-05-10T06:36:27;29.87;;;21.80;;
2966;SDS011;1493;51.496;7.210;2023-05-10T06:38:54;29.63;;;21.83;;
2966;SDS011;1493;51.496;7.210;2023-05-10T06:41:21;28.80;;;22.47;;
2966;SDS011;1493;51.496;7.210;2023-05-10T06:43:48;26.47;;;20.90;;
2966;SDS011;1493;51.496;7.210;2023-05-10T06:46:15;25.97;;;19.47;;
2966;SDS011;1493;51.496;7.210;2023-05-10T06:48:42;28.57;;;20.83;;
2966;SDS011;1493;51.496;7.210;2023-05-10T06:51:11;25.33;;;18.80;;
2966;SDS011;1493;51.496;7.210;2023-05-10T06:53:37;25.23;;;20.73;;
2966;SDS011;1493;51.496;7.210;2023-05-10T06:56:04;27.60;;;21.97;;
2966;SDS011;1493;51.496;7.210;2023-05-10T06:58:31;28.00;;;21.47;;
2966;SDS011;1493;51.496;7.210;2023-05-10T07:01:01;24.30;;;18.53;;
2966;SDS011;1493;51.496;7.210;2023-05-10T07:03:28;25.97;;;19.77;;
2966;SDS011;1493;51.496;7.210;2023-05-10T07:05:59;30.80;;;19.80;;
2966;SDS011;1493;51.496;7.210;2023-05-10T07:08:29;30.23;;;21.03;;
2966;SDS011;1493;51.496;7.210;2023-05-10T07:10:59;25.83;;;19.37;;
2966;SDS011;1493;51.496;7.210;2023-05-10T07:13:26;27.83;;;19.80;;
2966;SDS011;1493;51.496;7.210;2023-05-10T07:15:53;27.60;;;18.17;;
2966;SDS011;1493;51.496;7.210;2023-05-10T07:18:20;28.97;;;18.90;;
2966;SDS011;1493;51.496;7.210;2023-05-10T07:20:47;27.23;;;19.57;;
2966;SDS011;1493;51.496;7.210;2023-05-10T07:23:13;35.53;;;20.07;;
2966;SDS011;1493;51.496;7.210;2023-05-10T07:25:42;26.53;;;19.30;;
2966;SDS011;1493;51.496;7.210;2023-05-10T07:28:11;28.07;;;20.27;;
2966;SDS011;1493;51.496;7.210;2023-05-10T07:30:38;32.67;;;20.27;;
2966;SDS011;1493;51.496;7.210;2023-05-10T07:33:05;27.93;;;21.30;;
2966;SDS011;1493;51.496;7.210;2023-05-10T07:35:32;29.43;;;19.87;;
2966;SDS011;1493;51.496;7.210;2023-05-10T07:37:59;28.47;;;20.80;;
2966;SDS011;1493;51.496;7.210;2023-05-10T07:40:26;27.00;;;18.87;;
2966;SDS011;1493;51.496;7.210;2023-05-10T07:42:54;26.90;;;18.90;;
2966;SDS011;1493;51.496;7.210;2023-05-10T07:45:21;23.87;;;18.03;;
2966;SDS011;1493;51.496;7.210;2023-05-10T07:47:48;25.43;;;19.40;;
2966;SDS011;1493;51.496;7.210;2023-05-10T07:50:15;23.73;;;16.50;;
2966;SDS011;1493;51.496;7.210;2023-05-10T07:52:42;25.57;;;19.57;;
2966;SDS011;1493;51.496;7.210;2023-05-10T07:55:09;24.20;;;17.00;;
2966;SDS011;1493;51.496;7.210;2023-05-10T07:57:36;25.60;;;19.57;;
2966;SDS011;1493;51.496;7.210;2023-05-10T08:00:04;27.70;;;20.50;;
2966;SDS011;1493;51.496;7.210;2023-05-10T08:02:32;26.67;;;17.90;;
2966;SDS011;1493;51.496;7.210;2023-05-10T08:05:00;28.00;;;18.57;;
2966;SDS011;1493;51.496;7.210;2023-05-10T08:07:27;27.70;;;18.63;;
2966;SDS011;1493;51.496;7.210;2023-05-10T08:09:54;27.00;;;19.40;;
2966;SDS011;1493;51.496;7.210;2023-05-10T08:12:21;27.57;;;21.47;;
2966;SDS011;1493;51.496;7.210;2023-05-10T08:14:47;26.50;;;18.10;;
2966;SDS011;1493;51.496;7.210;2023-05-10T08:17:16;27.40;;;19.93;;
2966;SDS011;1493;51.496;7.210;2023-05-10T08:19:42;25.43;;;18.53;;
2966;SDS011;1493;51.496;7.210;2023-05-10T08:22:09;29.30;;;19.40;;
2966;SDS011;1493;51.496;7.210;2023-05-10T08:24:36;34.97;;;22.57;;
2966;SDS011;1493;51.496;7.210;2023-05-10T08:27:04;44.27;;;29.40;;
2966;SDS011;1493;51.496;7.210;2023-05-10T08:29:31;32.77;;;21.97;;
2966;SDS011;1493;51.496;7.210;2023-05-10T08:31:57;30.03;;;20.90;;
2966;SDS011;1493;51.496;7.210;2023-05-10T08:34:27;29.33;;;20.40;;
2966;SDS011;1493;51.496;7.210;2023-05-10T08:36:54;30.00;;;20.57;;
2966;SDS011;1493;51.496;7.210;2023-05-10T08:39:20;25.33;;;19.63;;
2966;SDS011;1493;51.496;7.210;2023-05-10T08:41:48;29.43;;;23.07;;
2966;SDS011;1493;51.496;7.210;2023-05-10T08:44:18;25.00;;;19.93;;
2966;SDS011;1493;51.496;7.210;2023-05-10T08:46:46;26.27;;;20.00;;
2966;SDS011;1493;51.496;7.210;2023-05-10T08:49:16;30.17;;;21.30;;
2966;SDS011;1493;51.496;7.210;2023-05-10T08:51:49;27.80;;;19.33;;
2966;SDS011;1493;51.496;7.210;2023-05-10T08:54:20;29.60;;;20.40;;
2966;SDS011;1493;51.496;7.210;2023-05-10T08:56:48;27.00;;;19.17;;
2966;SDS011;1493;51.496;7.210;2023-05-10T08:59:15;26.70;;;18.63;;
2966;SDS011;1493;51.496;7.210;2023-05-10T09:01:42;28.87;;;16.03;;
2966;SDS011;1493;51.496;7.210;2023-05-10T09:04:10;23.83;;;17.50;;
2966;SDS011;1493;51.496;7.210;2023-05-10T09:06:38;24.27;;;17.27;;
2966;SDS011;1493;51.496;7.210;2023-05-10T09:09:06;21.10;;;15.93;;
2966;SDS011;1493;51.496;7.210;2023-05-10T09:11:33;23.40;;;15.80;;
2966;SDS011;1493;51.496;7.210;2023-05-10T09:14:00;20.87;;;15.00;;
2966;SDS011;1493;51.496;7.210;2023-05-10T09:16:28;18.30;;;13.77;;
2966;SDS011;1493;51.496;7.210;2023-05-10T09:18:55;19.37;;;13.73;;
2966;SDS011;1493;51.496;7.210;2023-05-10T09:21:22;17.20;;;13.47;;
2966;SDS011;1493;51.496;7.210;2023-05-10T09:23:49;17.73;;;13.50;;
2966;SDS011;1493;51.496;7.210;2023-05-10T09:26:17;17.90;;;14.20;;
2966;SDS011;1493;51.496;7.210;2023-05-10T09:28:51;17.87;;;13.20;;
2966;SDS011;1493;51.496;7.210;2023-05-10T09:31:19;17.37;;;14.07;;
2966;SDS011;1493;51.496;7.210;2023-05-10T09:33:46;20.00;;;14.63;;
2966;SDS011;1493;51.496;7.210;2023-05-10T09:36:14;17.83;;;15.20;;
2966;SDS011;1493;51.496;7.210;2023-05-10T09:38:44;19.57;;;15.03;;
2966;SDS011;1493;51.496;7.210;2023-05-10T09:41:17;14.97;;;11.87;;
2966;SDS011;1493;51.496;7.210;2023-05-10T09:43:45;16.83;;;11.47;;
2966;SDS011;1493;51.496;7.210;2023-05-10T09:46:12;12.03;;;10.20;;
2966;SDS011;1493;51.496;7.210;2023-05-10T09:48:40;12.70;;;9.53;;
2966;SDS011;1493;51.496;7.210;2023-05-10T09:51:09;10.90;;;9.03;;
2966;SDS011;1493;51.496;7.210;2023-05-10T09:53:36;10.67;;;8.33;;
2966;SDS011;1493;51.496;7.210;2023-05-10T09:56:03;13.30;;;9.93;;
2966;SDS011;1493;51.496;7.210;2023-05-10T09:58:31;10.93;;;8.50;;
2966;SDS011;1493;51.496;7.210;2023-05-10T10:01:03;11.50;;;9.50;;
2966;SDS011;1493;51.496;7.210;2023-05-10T10:03:30;10.87;;;8.10;;
2966;SDS011;1493;51.496;7.210;2023-05-10T10:05:56;12.13;;;9.80;;
2966;SDS011;1493;51.496;7.210;2023-05-10T10:08:23;12.73;;;10.57;;
2966;SDS011;1493;51.496;7.210;2023-05-10T10:10:51;12.93;;;11.00;;
2966;SDS011;1493;51.496;7.210;2023-05-10T10:13:18;14.97;;;10.40;;
2966;SDS011;1493;51.496;7.210;2023-05-10T10:15:46;14.20;;;11.27;;
2966;SDS011;1493;51.496;7.210;2023-05-10T10:18:15;12.97;;;11.67;;
2966;SDS011;1493;51.496;7.210;2023-05-10T10:20:43;17.00;;;13.07;;
2966;SDS011;1493;51.496;7.210;2023-05-10T10:23:10;21.47;;;15.37;;
2966;SDS011;1493;51.496;7.210;2023-05-10T10:25:37;18.07;;;13.53;;
2966;SDS011;1493;51.496;7.210;2023-05-10T10:28:10;18.33;;;13.80;;
2966;SDS011;1493;51.496;7.210;2023-05-10T10:30:49;19.40;;;13.93;;
2966;SDS011;1493;51.496;7.210;2023-05-10T10:36:12;15.20;;;11.90;;
2966;SDS011;1493;51.496;7.210;2023-05-10T10:38:58;16.70;;;12.70;;
2966;SDS011;1493;51.496;7.210;2023-05-10T10:41:30;17.03;;;12.00;;
2966;SDS011;1493;51.496;7.210;2023-05-10T10:47:02;15.53;;;10.57;;
2966;SDS011;1493;51.496;7.210;2023-05-10T10:49:42;13.80;;;11.10;;
2966;SDS011;1493;51.496;7.210;2023-05-10T10:52:15;15.67;;;11.30;;
2966;SDS011;1493;51.496;7.210;2023-05-10T10:54:49;12.77;;;10.60;;
2966;SDS011;1493;51.496;7.210;2023-05-10T10:57:18;14.63;;;12.10;;
2966;SDS011;1493;51.496;7.210;2023-05-10T10:59:46;17.40;;;14.60;;
2966;SDS011;1493;51.496;7.210;2023-05-10T11:02:34;14.83;;;13.40;;
2966;SDS011;1493;51.496;7.210;2023-05-10T11:05:23;14.00;;;11.60;;
2966;SDS011;1493;51.496;7.210;2023-05-10T11:07:51;14.40;;;11.90;;
2966;SDS011;1493;51.496;7.210;2023-05-10T11:10:19;14.03;;;10.97;;
2966;SDS011;1493;51.496;7.210;2023-05-10T11:12:52;13.97;;;11.03;;
2966;SDS011;1493;51.496;7.210;2023-05-10T11:15:21;14.00;;;11.70;;
2966;SDS011;1493;51.496;7.210;2023-05-10T11:17:56;16.90;;;12.30;;
2966;SDS011;1493;51.496;7.210;2023-05-10T11:20:23;15.10;;;10.63;;
2966;SDS011;1493;51.496;7.210;2023-05-10T11:22:58;16.83;;;11.90;;
2966;SDS011;1493;51.496;7.210;2023-05-10T11:25:40;14.53;;;12.30;;
2966;SDS011;1493;51.496;7.210;2023-05-10T11:28:09;17.40;;;12.00;;
2966;SDS011;1493;51.496;7.210;2023-05-10T11:30:36;15.50;;;11.20;;
2966;SDS011;1493;51.496;7.210;2023-05-10T11:33:05;10.47;;;8.57;;
2966;SDS011;1493;51.496;7.210;2023-05-10T11:35:36;11.10;;;9.50;;
2966;SDS011;1493;51.496;7.210;2023-05-10T11:38:05;12.90;;;10.43;;
2966;SDS011;1493;51.496;7.210;2023-05-10T11:40:32;11.30;;;8.57;;
2966;SDS011;1493;51.496;7.210;2023-05-10T11:42:59;14.27;;;9.83;;
2966;SDS011;1493;51.496;7.210;2023-05-10T11:45:26;10.30;;;8.60;;
2966;SDS011;1493;51.496;7.210;2023-05-10T11:47:54;12.50;;;9.90;;
2966;SDS011;1493;51.496;7.210;2023-05-10T11:50:22;14.40;;;10.57;;
2966;SDS011;1493;51.496;7.210;2023-05-10T11:52:50;11.17;;;9.53;;
2966;SDS011;1493;51.496;7.210;2023-05-10T11:55:18;12.90;;;9.70;;
2966;SDS011;1493;51.496;7.210;2023-05-10T11:57:45;9.63;;;7.23;;
2966;SDS011;1493;51.496;7.210;2023-05-10T12:00:12;13.97;;;9.50;;
2966;SDS011;1493;51.496;7.210;2023-05-10T12:02:39;9.97;;;7.30;;
2966;SDS011;1493;51.496;7.210;2023-05-10T12:05:06;10.47;;;8.63;;
2966;SDS011;1493;51.496;7.210;2023-05-10T12:07:35;10.43;;;8.80;;
2966;SDS011;1493;51.496;7.210;2023-05-10T12:10:04;12.30;;;9.00;;
2966;SDS011;1493;51.496;7.210;2023-05-10T12:12:35;14.73;;;10.90;;
2966;SDS011;1493;51.496;7.210;2023-05-10T12:15:08;11.80;;;9.33;;
2966;SDS011;1493;51.496;7.210;2023-05-10T12:17:37;9.80;;;8.73;;
2966;SDS011;1493;51.496;7.210;2023-05-10T12:20:17;13.83;;;9.53;;
2966;SDS011;1493;51.496;7.210;2023-05-10T12:22:56;14.50;;;9.03;;
2966;SDS011;1493;51.496;7.210;2023-05-10T12:25:29;10.23;;;8.60;;
2966;SDS011;1493;51.496;7.210;2023-05-10T12:27:58;13.30;;;10.30;;
2966;SDS011;1493;51.496;7.210;2023-05-10T12:30:26;10.83;;;8.93;;
2966;SDS011;1493;51.496;7.210;2023-05-10T12:32:58;9.00;;;7.60;;
2966;SDS011;1493;51.496;7.210;2023-05-10T12:35:26;10.70;;;8.70;;
2966;SDS011;1493;51.496;7.210;2023-05-10T12:37:57;10.90;;;9.33;;
2966;SDS011;1493;51.496;7.210;2023-05-10T12:40:24;14.30;;;9.27;;
2966;SDS011;1493;51.496;7.210;2023-05-10T12:42:51;12.80;;;9.37;;
2966;SDS011;1493;51.496;7.210;2023-05-10T12:45:18;11.37;;;9.63;;
2966;SDS011;1493;51.496;7.210;2023-05-10T12:47:45;9.47;;;7.80;;
2966;SDS011;1493;51.496;7.210;2023-05-10T12:50:11;9.00;;;7.87;;
2966;SDS011;1493;51.496;7.210;2023-05-10T12:52:38;8.90;;;8.00;;
2966;SDS011;1493;51.496;7.210;2023-05-10T12:55:07;9.50;;;7.83;;
2966;SDS011;1493;51.496;7.210;2023-05-10T12:57:34;8.47;;;7.67;;
2966;SDS011;1493;51.496;7.210;2023-05-10T13:00:01;9.00;;;7.47;;
2966;SDS011;1493;51.496;7.210;2023-05-10T13:02:29;9.57;;;7.73;;
2966;SDS011;1493;51.496;7.210;2023-05-10T13:04:56;10.30;;;7.83;;
2966;SDS011;1493;51.496;7.210;2023-05-10T13:07:23;12.03;;;8.90;;
2966;SDS011;1493;51.496;7.210;2023-05-10T13:09:53;7.63;;;6.73;;
2966;SDS011;1493;51.496;7.210;2023-05-10T13:12:24;8.77;;;7.20;;
2966;SDS011;1493;51.496;7.210;2023-05-10T13:14:54;7.90;;;5.87;;
2966;SDS011;1493;51.496;7.210;2023-05-10T13:17:21;5.90;;;5.30;;
2966;SDS011;1493;51.496;7.210;2023-05-10T13:19:48;8.73;;;6.03;;
2966;SDS011;1493;51.496;7.210;2023-05-10T13:22:15;5.70;;;4.83;;
2966;SDS011;1493;51.496;7.210;2023-05-10T13:24:42;6.17;;;4.60;;
2966;SDS011;1493;51.496;7.210;2023-05-10T13:27:09;6.10;;;5.20;;
2966;SDS011;1493;51.496;7.210;2023-05-10T13:29:37;6.47;;;4.23;;
2966;SDS011;1493;51.496;7.210;2023-05-10T13:32:04;5.67;;;3.90;;
2966;SDS011;1493;51.496;7.210;2023-05-10T13:34:31;5.80;;;4.47;;
2966;SDS011;1493;51.496;7.210;2023-05-10T13:36:58;4.17;;;3.63;;
2966;SDS011;1493;51.496;7.210;2023-05-10T13:39:25;4.23;;;3.80;;
2966;SDS011;1493;51.496;7.210;2023-05-10T13:41:52;5.77;;;3.70;;
2966;SDS011;1493;51.496;7.210;2023-05-10T13:44:19;3.90;;;2.80;;
2966;SDS011;1493;51.496;7.210;2023-05-10T13:46:48;4.80;;;3.70;;
2966;SDS011;1493;51.496;7.210;2023-05-10T13:49:15;4.23;;;2.90;;
2966;SDS011;1493;51.496;7.210;2023-05-10T13:51:42;4.73;;;4.20;;
2966;SDS011;1493;51.496;7.210;2023-05-10T13:54:10;4.83;;;4.00;;
2966;SDS011;1493;51.496;7.210;2023-05-10T13:56:37;4.20;;;3.50;;
2966;SDS011;1493;51.496;7.210;2023-05-10T13:59:04;3.97;;;3.33;;
2966;SDS011;1493;51.496;7.210;2023-05-10T14:01:31;6.93;;;3.80;;
2966;SDS011;1493;51.496;7.210;2023-05-10T14:03:59;4.80;;;4.30;;
2966;SDS011;1493;51.496;7.210;2023-05-10T14:06:26;6.20;;;4.27;;
2966;SDS011;1493;51.496;7.210;2023-05-10T14:08:53;4.73;;;3.17;;
2966;SDS011;1493;51.496;7.210;2023-05-10T14:11:21;4.60;;;2.90;;
2966;SDS011;1493;51.496;7.210;2023-05-10T14:13:48;3.93;;;2.47;;
2966;SDS011;1493;51.496;7.210;2023-05-10T14:16:15;4.33;;;3.10;;
2966;SDS011;1493;51.496;7.210;2023-05-10T14:18:42;3.03;;;2.33;;
2966;SDS011;1493;51.496;7.210;2023-05-10T14:21:11;4.50;;;3.00;;
2966;SDS011;1493;51.496;7.210;2023-05-10T14:23:38;7.27;;;2.50;;
2966;SDS011;1493;51.496;7.210;2023-05-10T14:26:04;4.50;;;2.90;;
2966;SDS011;1493;51.496;7.210;2023-05-10T14:28:32;4.60;;;3.00;;
2966;SDS011;1493;51.496;7.210;2023-05-10T14:30:59;3.70;;;3.00;;
2966;SDS011;1493;51.496;7.210;2023-05-10T14:33:26;6.37;;;3.47;;
2966;SDS011;1493;51.496;7.210;2023-05-10T14:35:53;6.17;;;3.50;;
2966;SDS011;1493;51.496;7.210;2023-05-10T14:38:22;4.07;;;3.10;;
2966;SDS011;1493;51.496;7.210;2023-05-10T14:40:49;4.87;;;3.10;;
2966;SDS011;1493;51.496;7.210;2023-05-10T14:43:18;5.97;;;3.17;;
2966;SDS011;1493;51.496;7.210;2023-05-10T14:45:45;4.00;;;3.10;;
2966;SDS011;1493;51.496;7.210;2023-05-10T14:48:12;3.63;;;3.33;;
2966;SDS011;1493;51.496;7.210;2023-05-10T14:50:41;5.50;;;3.33;;
2966;SDS011;1493;51.496;7.210;2023-05-10T14:53:08;7.60;;;3.70;;
2966;SDS011;1493;51.496;7.210;2023-05-10T14:55:40;5.40;;;3.30;;
2966;SDS011;1493;51.496;7.210;2023-05-10T14:58:07;4.77;;;2.93;;
2966;SDS011;1493;51.496;7.210;2023-05-10T15:00:34;6.73;;;4.50;;
2966;SDS011;1493;51.496;7.210;2023-05-10T15:03:03;5.33;;;3.83;;
2966;SDS011;1493;51.496;7.210;2023-05-10T15:05:32;4.00;;;2.97;;
2966;SDS011;1493;51.496;7.210;2023-05-10T15:08:02;5.50;;;3.50;;
2966;SDS011;1493;51.496;7.210;2023-05-10T15:10:29;5.73;;;3.73;;
2966;SDS011;1493;51.496;7.210;2023-05-10T15:12:59;4.40;;;3.60;;
2966;SDS011;1493;51.496;7.210;2023-05-10T15:15:25;5.00;;;3.40;;
2966;SDS011;1493;51.496;7.210;2023-05-10T15:17:52;3.77;;;2.63;;
2966;SDS011;1493;51.496;7.210;2023-05-10T15:20:19;5.43;;;3.23;;